Time;durP1;ratioP1;P1;durP2;ratioP2;P2;SDS_P1;SDS_P2;PMS_P1;PMS_P2;Temp;Humidity;BMP_temperature;BMP_pressure;BME280_temperature;BME280_humidity;BME280_pressure;Samples;Min_cycle;Max_cycle;Signal;HPM_P1;HPM_P2
2023/12/29 00:01:47;;;;;;;0.87;0.87;;;;;;;3.69;85.96;95513.28;5013678;28;20259;-65
2023/12/29 00:04:12;;;;;;;1.10;1.10;;;;;;;3.73;86.29;95514.59;4996144;28;20181;-65
2023/12/29 00:06:38;;;;;;;1.10;1.10;;;;;;;3.61;86.16;95501.03;5013580;28;20207;-65
2023/12/29 00:09:04;;;;;;;0.50;0.50;;;;;;;3.63;85.92;95514.69;5013428;28;20546;-66
2023/12/29 00:11:30;;;;;;;0.60;0.60;;;;;;;3.22;87.23;95458.09;5013455;28;20215;-65
2023/12/29 00:13:55;;;;;;;3.43;3.13;;;;;;;3.56;88.15;95497.22;5013462;28;20187;-65
2023/12/29 00:16:21;;;;;;;2.63;2.53;;;;;;;3.55;86.91;95498.19;5013745;28;20176;-65
2023/12/29 00:18:46;;;;;;;0.80;0.80;;;;;;;3.54;86.25;95486.19;5013365;28;20270;-65
2023/12/29 00:21:12;;;;;;;9.90;8.97;;;;;;;3.62;85.82;95507.06;5013646;28;20319;-65
2023/12/29 00:23:37;;;;;;;0.57;0.57;;;;;;;3.58;85.36;95508.31;5013174;28;20192;-65
2023/12/29 00:26:03;;;;;;;0.67;0.67;;;;;;;3.61;84.63;95506.22;5013204;28;20215;-65
2023/12/29 00:28:28;;;;;;;0.53;0.53;;;;;;;3.51;84.66;95499.47;5013321;28;20240;-65
2023/12/29 00:30:54;;;;;;;0.70;0.70;;;;;;;3.34;85.82;95496.75;5013209;28;20177;-65
2023/12/29 00:33:19;;;;;;;66.17;59.93;;;;;;;3.42;86.21;95499.41;5013177;28;20183;-65
2023/12/29 00:35:45;;;;;;;4.00;3.80;;;;;;;3.47;85.78;95491.16;5013349;28;20168;-66
2023/12/29 00:38:10;;;;;;;2.77;2.50;;;;;;;3.31;85.74;95494.44;5013037;28;20231;-65
2023/12/29 00:40:36;;;;;;;1.97;1.87;;;;;;;3.27;85.78;95498.34;5012947;28;20567;-65
2023/12/29 00:43:01;;;;;;;1.07;1.07;;;;;;;3.34;85.39;95494.16;5012941;28;20176;-65
2023/12/29 00:45:32;;;;;;;1.03;1.03;;;;;;;3.26;84.51;95491.50;5012758;28;20196;-66
2023/12/29 00:48:01;;;;;;;0.97;0.97;;;;;;;3.17;84.75;95492.38;5012830;28;20181;-65
2023/12/29 00:50:27;;;;;;;2.03;2.00;;;;;;;3.10;85.13;95493.97;5012768;28;20180;-65
2023/12/29 00:52:52;;;;;;;0.67;0.67;;;;;;;3.15;85.20;95490.91;5011814;28;20244;-65
2023/12/29 00:55:19;;;;;;;1.53;1.43;;;;;;;3.15;85.19;95493.50;5012797;28;20184;-65
2023/12/29 00:57:44;;;;;;;0.80;0.80;;;;;;;3.00;85.53;95490.63;5012674;28;20187;-65
2023/12/29 01:00:12;;;;;;;1.27;1.27;;;;;;;2.96;85.58;95471.06;5012557;28;20189;-65
2023/12/29 01:02:38;;;;;;;1.90;1.90;;;;;;;3.02;86.06;95484.31;5012378;28;20235;-65
2023/12/29 01:05:04;;;;;;;0.77;0.77;;;;;;;3.11;85.63;95482.59;5012497;28;20260;-65
2023/12/29 01:07:29;;;;;;;0.50;0.50;;;;;;;3.04;85.02;95481.53;5012375;28;20192;-65
2023/12/29 01:09:55;;;;;;;4.43;4.20;;;;;;;3.02;86.31;95479.09;5012380;28;20252;-65
2023/12/29 01:12:20;;;;;;;1.03;1.03;;;;;;;3.16;86.68;95485.53;5012412;28;20255;-65
2023/12/29 01:14:46;;;;;;;0.70;0.70;;;;;;;3.20;86.62;95486.88;5012456;28;20192;-66
2023/12/29 01:17:11;;;;;;;0.60;0.60;;;;;;;3.22;86.18;95490.16;5012623;28;20950;-66
2023/12/29 01:19:37;;;;;;;0.60;0.60;;;;;;;3.11;86.40;95480.00;5012242;28;20586;-66
2023/12/29 01:22:03;;;;;;;3.70;3.40;;;;;;;2.94;87.49;95497.19;5011556;28;21044;-65
2023/12/29 01:24:28;;;;;;;1.90;1.80;;;;;;;3.06;86.96;95495.22;5012316;28;20184;-65
2023/12/29 01:26:54;;;;;;;0.50;0.50;;;;;;;2.97;86.83;95498.69;5012232;28;20215;-66
2023/12/29 01:29:19;;;;;;;4.80;4.40;;;;;;;2.42;88.87;95467.59;5012119;28;20255;-66
2023/12/29 01:31:45;;;;;;;2.50;2.20;;;;;;;2.55;90.75;95491.47;5012046;28;20185;-66
2023/12/29 01:34:10;;;;;;;0.60;0.60;;;;;;;2.75;89.80;95499.13;5012070;28;20310;-66
2023/12/29 01:36:36;;;;;;;0.67;0.67;;;;;;;2.73;90.14;95493.25;5012052;28;20172;-66
2023/12/29 01:39:02;;;;;;;0.70;0.70;;;;;;;2.86;89.71;95497.13;5011941;28;20196;-65
2023/12/29 01:41:29;;;;;;;8.70;6.53;;;;;;;2.67;91.13;95497.28;5012001;28;20659;-65
2023/12/29 01:44:01;;;;;;;2.63;2.43;;;;;;;2.72;90.21;95505.44;5011843;28;20231;-65
2023/12/29 01:46:29;;;;;;;7.30;3.70;;;;;;;2.82;90.31;95495.81;5011844;28;20204;-65
2023/12/29 01:48:55;;;;;;;0.50;0.50;;;;;;;2.77;90.04;95490.22;5011683;28;20219;-65
2023/12/29 01:51:24;;;;;;;1.40;1.40;;;;;;;2.86;89.03;95494.53;5011714;28;20269;-65
2023/12/29 01:53:51;;;;;;;0.60;0.60;;;;;;;2.62;88.55;95458.72;5011714;28;20176;-65
2023/12/29 01:56:16;;;;;;;3.33;3.13;;;;;;;2.75;88.06;95483.53;5011661;28;20717;-65
2023/12/29 01:58:43;;;;;;;19.63;17.60;;;;;;;2.69;89.31;95476.31;5011733;28;20180;-65
2023/12/29 02:01:10;;;;;;;0.50;0.50;;;;;;;2.80;89.15;95473.50;5011750;28;20188;-65
2023/12/29 02:03:36;;;;;;;0.50;0.50;;;;;;;2.74;89.31;95476.72;5011429;28;20188;-65
2023/12/29 02:06:01;;;;;;;0.70;0.70;;;;;;;2.71;88.44;95474.38;5011631;28;20196;-65
2023/12/29 02:08:27;;;;;;;2.20;2.10;;;;;;;2.81;88.05;95467.34;5011546;28;20555;-66
2023/12/29 02:10:53;;;;;;;0.87;0.87;;;;;;;2.83;87.62;95463.66;5011413;28;20278;-66
2023/12/29 02:13:21;;;;;;;2.40;1.10;;;;;;;2.90;86.90;95458.66;5011231;28;20184;-66
2023/12/29 02:15:47;;;;;;;0.80;0.80;;;;;;;2.85;87.40;95447.91;5011301;28;20644;-66
2023/12/29 02:18:15;;;;;;;5.30;2.73;;;;;;;2.86;86.84;95446.91;5011249;28;20180;-66
2023/12/29 02:20:42;;;;;;;0.73;0.73;;;;;;;2.78;87.28;95445.06;5011267;28;20242;-66
2023/12/29 02:23:08;;;;;;;0.57;0.57;;;;;;;2.91;86.78;95440.31;5011161;28;20176;-65
2023/12/29 02:25:34;;;;;;;1.13;1.13;;;;;;;2.99;86.43;95442.16;5011218;28;20283;-66
2023/12/29 02:28:09;;;;;;;2.00;1.90;;;;;;;2.88;86.88;95443.22;5010823;28;20187;-66
2023/12/29 02:30:45;;;;;;;0.60;0.60;;;;;;;2.89;86.79;95431.84;5011282;28;20180;-65
2023/12/29 02:33:16;;;;;;;6.87;4.57;;;;;;;2.83;88.25;95434.22;5011067;28;20260;-65
2023/12/29 02:35:44;;;;;;;4.53;4.33;;;;;;;2.84;87.73;95434.09;5010997;28;20176;-66
2023/12/29 02:38:11;;;;;;;0.50;0.50;;;;;;;2.88;87.17;95439.78;5011186;28;20177;-65
2023/12/29 02:40:37;;;;;;;1.13;1.13;;;;;;;2.81;86.00;95443.94;5011077;28;20181;-65
2023/12/29 02:43:02;;;;;;;0.67;0.67;;;;;;;2.74;86.29;95422.13;5010875;28;20182;-65
2023/12/29 02:45:28;;;;;;;0.50;0.50;;;;;;;2.82;86.03;95435.19;5004127;28;20199;-65
2023/12/29 02:47:54;;;;;;;0.60;0.60;;;;;;;2.80;85.95;95426.72;5011052;28;20614;-65
2023/12/29 02:50:19;;;;;;;2.70;2.57;;;;;;;2.62;86.26;95398.13;5011030;28;20686;-65
2023/12/29 02:52:45;;;;;;;1.30;1.30;;;;;;;2.79;86.33;95419.88;5011180;28;20226;-65
2023/12/29 02:55:10;;;;;;;7.27;6.93;;;;;;;2.74;86.71;95412.53;4993204;28;20192;-65
2023/12/29 02:57:36;;;;;;;0.87;0.87;;;;;;;2.58;87.44;95402.00;5010838;28;20180;-65
2023/12/29 03:00:01;;;;;;;0.70;0.70;;;;;;;2.83;86.65;95421.22;5010857;28;20565;-65
2023/12/29 03:02:27;;;;;;;1.00;1.00;;;;;;;2.64;87.36;95397.03;5010501;28;20181;-66
2023/12/29 03:04:53;;;;;;;0.50;0.50;;;;;;;2.74;87.26;95409.94;5010586;28;20176;-66
2023/12/29 03:07:18;;;;;;;3.40;3.30;;;;;;;2.57;88.54;95396.00;5010461;28;20274;-66
2023/12/29 03:09:44;;;;;;;1.53;1.47;;;;;;;2.26;89.30;95398.09;5010468;28;20247;-66
2023/12/29 03:12:09;;;;;;;3.53;3.43;;;;;;;2.42;90.03;95400.03;5010603;28;20184;-65
2023/12/29 03:14:35;;;;;;;1.23;1.20;;;;;;;2.53;89.42;95394.66;5010623;28;20243;-66
2023/12/29 03:17:00;;;;;;;0.97;0.97;;;;;;;2.53;89.12;95397.25;5014693;28;20655;-65
2023/12/29 03:19:26;;;;;;;1.90;1.80;;;;;;;2.47;89.08;95392.66;5014755;28;20219;-65
2023/12/29 03:21:53;;;;;;;0.90;0.90;;;;;;;2.47;88.51;95400.44;5014660;28;20221;-65
2023/12/29 03:24:19;;;;;;;0.60;0.60;;;;;;;2.36;89.07;95398.03;5014625;28;20184;-66
2023/12/29 03:26:44;;;;;;;12.80;11.50;;;;;;;2.45;89.13;95399.75;5014467;28;20215;-66
2023/12/29 03:29:11;;;;;;;4.70;4.53;;;;;;;2.45;88.96;95389.38;5014821;28;20177;-65
2023/12/29 03:31:36;;;;;;;16.20;15.23;;;;;;;2.50;88.11;95391.53;5014494;28;20275;-66
2023/12/29 03:34:02;;;;;;;1.00;0.97;;;;;;;2.53;88.04;95389.44;4996899;28;20290;-65
2023/12/29 03:36:27;;;;;;;1.03;1.03;;;;;;;2.51;87.69;95386.16;4996977;28;20184;-65
2023/12/29 03:38:53;;;;;;;1.27;1.27;;;;;;;2.51;88.57;95387.94;5014314;28;20181;-65
2023/12/29 03:41:18;;;;;;;8.87;8.37;;;;;;;2.52;88.17;95393.00;5014132;28;20242;-65
2023/12/29 03:43:44;;;;;;;3.63;3.33;;;;;;;2.36;88.46;95390.25;5014180;28;20203;-65
2023/12/29 03:46:20;;;;;;;0.50;0.50;;;;;;;2.44;87.58;95402.50;5014075;28;20200;-65
2023/12/29 03:48:46;;;;;;;2.40;1.30;;;;;;;2.29;88.28;95391.81;5014219;28;20192;-65
2023/12/29 03:51:12;;;;;;;1.83;1.83;;;;;;;2.25;87.97;95374.88;5014204;28;20957;-65
2023/12/29 03:53:38;;;;;;;0.80;0.80;;;;;;;2.37;87.52;95407.47;5014099;28;20180;-65
2023/12/29 03:56:07;;;;;;;1.10;1.10;;;;;;;2.26;87.96;95403.31;5013982;28;20179;-65
2023/12/29 03:58:32;;;;;;;0.60;0.60;;;;;;;2.21;88.35;95405.53;5014156;28;20243;-66
2023/12/29 04:00:58;;;;;;;3.07;2.87;;;;;;;2.21;88.76;95404.72;5013742;28;20181;-66
2023/12/29 04:03:23;;;;;;;0.60;0.60;;;;;;;2.31;88.76;95410.66;5013891;28;20208;-65
2023/12/29 04:05:49;;;;;;;0.60;0.60;;;;;;;2.36;88.97;95400.66;5013743;28;20201;-65
2023/12/29 04:08:14;;;;;;;0.60;0.60;;;;;;;2.46;89.06;95403.19;5013708;28;20687;-66
2023/12/29 04:10:40;;;;;;;0.73;0.73;;;;;;;2.49;87.91;95398.50;5013526;28;20235;-65
2023/12/29 04:13:05;;;;;;;3.27;3.13;;;;;;;2.47;87.97;95394.44;4996256;28;20188;-66
2023/12/29 04:15:31;;;;;;;0.80;0.80;;;;;;;2.49;86.89;95402.91;4995768;28;20180;-66
2023/12/29 04:17:56;;;;;;;23.87;22.27;;;;;;;2.50;86.39;95405.34;5013224;28;20181;-65
2023/12/29 04:20:22;;;;;;;33.17;29.87;;;;;;;2.17;86.94;95346.22;5013517;28;20204;-66
2023/12/29 04:22:48;;;;;;;1.20;1.20;;;;;;;2.48;86.91;95402.06;5013369;28;20176;-65
2023/12/29 04:25:13;;;;;;;0.60;0.60;;;;;;;2.40;87.74;95396.81;5013300;28;20188;-65
2023/12/29 04:27:40;;;;;;;0.50;0.50;;;;;;;2.34;87.47;95405.16;5012080;28;20184;-65
2023/12/29 04:30:06;;;;;;;0.60;0.60;;;;;;;2.30;87.23;95403.03;5013061;28;20176;-65
2023/12/29 04:32:32;;;;;;;0.60;0.60;;;;;;;2.19;87.21;95391.06;5012853;28;20164;-65
2023/12/29 04:34:57;;;;;;;0.50;0.50;;;;;;;2.06;87.97;95401.81;5012864;28;20266;-65
2023/12/29 04:37:23;;;;;;;3.00;2.80;;;;;;;2.01;88.45;95409.19;5013074;28;20180;-66
2023/12/29 04:39:48;;;;;;;1.80;1.73;;;;;;;2.03;88.29;95416.84;5012917;28;20181;-65
2023/12/29 04:42:14;;;;;;;1.47;1.47;;;;;;;2.01;88.36;95414.38;5012719;28;20512;-65
2023/12/29 04:44:39;;;;;;;0.60;0.60;;;;;;;2.01;88.04;95408.38;5013188;28;20177;-65
2023/12/29 04:47:05;;;;;;;7.23;6.70;;;;;;;1.98;87.26;95404.31;5012885;28;20215;-65
2023/12/29 04:49:30;;;;;;;0.60;0.60;;;;;;;1.97;87.34;95412.22;5012748;28;20178;-65
2023/12/29 04:51:56;;;;;;;0.80;0.80;;;;;;;2.09;87.67;95414.47;5012735;28;20223;-65
2023/12/29 04:54:21;;;;;;;0.50;0.50;;;;;;;2.15;87.14;95398.34;5012832;28;20180;-65
2023/12/29 04:56:47;;;;;;;0.50;0.50;;;;;;;2.13;86.36;95399.44;5012782;28;20172;-65
2023/12/29 04:59:12;;;;;;;0.80;0.80;;;;;;;2.19;87.13;95396.25;5012713;28;20638;-65
2023/12/29 05:01:37;;;;;;;1.43;1.43;;;;;;;2.12;86.76;95400.38;5012868;28;20199;-65
2023/12/29 05:04:03;;;;;;;0.50;0.50;;;;;;;2.08;86.83;95399.03;5012329;28;20230;-66
2023/12/29 05:06:28;;;;;;;0.80;0.80;;;;;;;2.00;86.52;95389.38;5012283;28;20228;-65
2023/12/29 05:08:54;;;;;;;5.17;4.97;;;;;;;2.05;86.48;95394.16;5012302;28;20184;-65
2023/12/29 05:11:19;;;;;;;0.80;0.80;;;;;;;1.96;86.65;95393.25;5011956;28;20250;-65
2023/12/29 05:13:45;;;;;;;3.50;3.40;;;;;;;1.94;86.98;95392.56;5012246;28;20176;-65
2023/12/29 05:16:10;;;;;;;0.70;0.70;;;;;;;1.98;87.12;95390.50;5011935;28;20323;-65
2023/12/29 05:18:36;;;;;;;0.80;0.80;;;;;;;1.88;86.79;95393.97;5011586;28;20226;-65
2023/12/29 05:21:01;;;;;;;0.80;0.80;;;;;;;1.70;87.34;95390.50;5011606;28;20180;-65
2023/12/29 05:23:27;;;;;;;0.60;0.60;;;;;;;1.84;86.92;95390.00;5011641;28;20177;-65
2023/12/29 05:25:52;;;;;;;3.07;2.83;;;;;;;1.87;86.78;95394.09;5011827;28;20322;-65
2023/12/29 05:28:18;;;;;;;15.40;13.73;;;;;;;1.99;86.75;95390.34;5012164;28;20563;-65
2023/12/29 05:30:43;;;;;;;2.40;2.20;;;;;;;1.81;87.26;95389.50;5012096;28;20165;-65
2023/12/29 05:33:09;;;;;;;2.57;2.47;;;;;;;1.73;87.38;95395.38;5011953;28;20183;-65
2023/12/29 05:35:34;;;;;;;10.17;9.33;;;;;;;1.85;87.93;95386.47;4998455;28;20177;-65
2023/12/29 05:38:00;;;;;;;2.67;2.57;;;;;;;1.89;87.54;95387.00;5011482;28;20181;-65
2023/12/29 05:40:25;;;;;;;10.37;9.33;;;;;;;1.85;87.54;95380.44;5012035;28;20173;-65
2023/12/29 05:42:51;;;;;;;1.17;1.17;;;;;;;1.86;87.54;95395.06;5012070;28;20180;-65
2023/12/29 05:45:17;;;;;;;5.23;4.73;;;;;;;1.70;89.21;95400.88;5011675;28;20259;-65
2023/12/29 05:47:43;;;;;;;19.80;14.00;;;;;;;1.80;88.71;95409.44;5011722;28;20573;-65
2023/12/29 05:50:09;;;;;;;1.97;1.87;;;;;;;1.88;88.37;95403.53;5003481;28;20180;-65
2023/12/29 05:52:34;;;;;;;0.70;0.70;;;;;;;1.97;88.25;95394.88;5011691;28;20175;-65
2023/12/29 05:55:00;;;;;;;3.20;2.93;;;;;;;1.93;87.86;95398.72;5011801;28;20212;-66
2023/12/29 05:57:25;;;;;;;1.20;1.20;;;;;;;1.83;88.31;95396.16;5011399;28;20176;-65
2023/12/29 05:59:51;;;;;;;2.13;2.03;;;;;;;1.75;88.33;95393.47;5011376;28;20179;-66
2023/12/29 06:02:16;;;;;;;3.33;3.13;;;;;;;1.56;88.78;95384.97;5011539;28;20184;-65
2023/12/29 06:04:42;;;;;;;3.13;2.93;;;;;;;1.62;89.08;95389.59;5011380;28;20255;-65
2023/12/29 06:07:07;;;;;;;47.40;16.60;;;;;;;1.44;88.82;95364.41;5011418;28;20675;-65
2023/12/29 06:09:33;;;;;;;43.73;40.80;;;;;;;1.74;88.23;95388.41;5011379;28;20223;-65
2023/12/29 06:11:58;;;;;;;3.53;3.33;;;;;;;1.60;87.88;95392.31;5011584;28;20188;-65
2023/12/29 06:14:23;;;;;;;0.80;0.80;;;;;;;1.71;87.88;95392.13;5011181;28;20640;-65
2023/12/29 06:16:49;;;;;;;2.77;2.67;;;;;;;1.72;87.91;95392.97;5011602;28;20184;-65
2023/12/29 06:19:14;;;;;;;1.10;1.10;;;;;;;1.79;87.85;95389.66;5011519;28;20907;-65
2023/12/29 06:21:42;;;;;;;1.00;1.00;;;;;;;1.83;87.25;95387.56;5011199;28;20180;-65
2023/12/29 06:24:08;;;;;;;2.10;2.00;;;;;;;1.91;87.11;95398.03;5011457;28;20181;-65
2023/12/29 06:26:33;;;;;;;12.27;11.40;;;;;;;1.87;87.30;95397.53;5011071;28;20219;-65
2023/12/29 06:28:59;;;;;;;2.47;2.37;;;;;;;1.98;87.42;95398.28;5011281;28;20624;-65
2023/12/29 06:31:24;;;;;;;2.30;2.20;;;;;;;1.93;87.99;95401.31;5011209;28;20192;-65
2023/12/29 06:33:50;;;;;;;1.00;1.00;;;;;;;2.10;87.61;95397.13;5011031;28;20187;-65
2023/12/29 06:36:15;;;;;;;0.60;0.60;;;;;;;2.23;86.87;95402.78;5011163;28;20180;-65
2023/12/29 06:38:41;;;;;;;0.70;0.70;;;;;;;2.18;86.71;95405.81;5010960;28;20180;-66
2023/12/29 06:41:07;;;;;;;4.83;2.63;;;;;;;2.12;86.51;95390.81;5011111;28;20275;-65
2023/12/29 06:43:33;;;;;;;1.27;1.23;;;;;;;2.18;86.58;95373.84;5011069;28;20262;-65
2023/12/29 06:45:59;;;;;;;1.17;1.17;;;;;;;2.52;86.91;95390.41;5010888;28;20319;-65
2023/12/29 06:48:24;;;;;;;14.60;13.53;;;;;;;3.03;86.07;95399.28;5010881;28;20615;-65
2023/12/29 06:50:50;;;;;;;4.60;4.30;;;;;;;3.63;84.86;95383.75;5007952;28;20614;-65
2023/12/29 06:53:15;;;;;;;1.47;1.47;;;;;;;4.10;81.97;95400.53;4991542;28;20215;-65
2023/12/29 06:55:41;;;;;;;3.43;3.23;;;;;;;4.21;79.91;95380.38;4973797;28;20538;-65
2023/12/29 06:58:07;;;;;;;1.00;1.00;;;;;;;4.69;79.38;95410.94;4991442;28;20200;-65
2023/12/29 07:00:33;;;;;;;12.47;11.33;;;;;;;5.00;77.50;95417.19;4991324;28;20996;-66
2023/12/29 07:03:00;;;;;;;5.37;5.07;;;;;;;5.52;75.02;95398.56;4973752;28;20208;-66
2023/12/29 07:05:26;;;;;;;13.63;12.17;;;;;;;5.99;73.98;95409.88;4991256;28;20181;-66
2023/12/29 07:07:51;;;;;;;39.03;8.23;;;;;;;6.57;72.96;95403.41;4990894;28;20243;-66
2023/12/29 07:10:17;;;;;;;7.20;5.93;;;;;;;6.71;71.98;95400.03;4991028;28;20643;-66
2023/12/29 07:12:43;;;;;;;30.97;28.53;;;;;;;6.88;71.64;95385.03;4991187;28;20661;-66
2023/12/29 07:15:09;;;;;;;24.13;15.67;;;;;;;7.72;68.88;95409.34;4990772;28;20264;-66
2023/12/29 07:17:34;;;;;;;18.97;7.00;;;;;;;8.17;67.29;95417.03;4990897;28;20173;-66
2023/12/29 07:20:00;;;;;;;28.37;25.50;;;;;;;7.90;67.97;95410.63;4990766;28;20188;-66
2023/12/29 07:22:25;;;;;;;9.77;9.17;;;;;;;8.25;66.24;95416.94;4991042;28;20279;-66
2023/12/29 07:24:51;;;;;;;17.43;15.63;;;;;;;7.71;66.78;95402.47;4990886;28;20177;-66
2023/12/29 07:27:16;;;;;;;7.93;7.50;;;;;;;7.09;69.48;95398.28;4990759;28;20225;-66
2023/12/29 07:29:42;;;;;;;10.37;9.23;;;;;;;6.90;70.68;95390.09;4990910;28;20189;-66
2023/12/29 07:32:07;;;;;;;0.73;0.73;;;;;;;7.80;69.72;95383.06;4990810;28;20197;-66
2023/12/29 07:34:33;;;;;;;6.00;5.70;;;;;;;8.75;66.96;95393.53;4973272;28;20188;-66
2023/12/29 07:36:59;;;;;;;5.80;5.47;;;;;;;9.87;63.83;95387.41;4990595;28;20173;-67
2023/12/29 07:39:24;;;;;;;5.77;5.40;;;;;;;11.05;59.25;95389.72;4990774;28;20188;-67
2023/12/29 07:41:53;;;;;;;10.60;7.10;;;;;;;11.98;56.53;95395.84;4990704;28;21005;-67
2023/12/29 07:44:18;;;;;;;9.90;8.87;;;;;;;12.98;53.42;95387.31;4990764;28;20359;-67
2023/12/29 07:46:44;;;;;;;5.97;5.47;;;;;;;13.83;51.68;95403.63;4990454;28;21042;-65
2023/12/29 07:49:10;;;;;;;8.30;7.15;;;;;;;14.36;49.82;95395.94;4990185;28;20188;-65
2023/12/29 07:51:42;;;;;;;4.65;4.35;;;;;;;14.36;48.48;95390.66;4990500;28;20679;-65
2023/12/29 07:54:08;;;;;;;19.02;8.40;;;;;;;14.93;48.93;95399.19;4990506;28;20640;-65
2023/12/29 07:56:34;;;;;;;6.00;5.55;;;;;;;16.13;45.01;95383.88;4990283;28;20184;-65
2023/12/29 07:59:00;;;;;;;19.45;4.75;;;;;;;16.81;42.60;95405.25;4990500;28;20393;-66
2023/12/29 08:01:26;;;;;;;8.52;7.68;;;;;;;16.68;41.42;95386.94;4991352;28;20184;-66
2023/12/29 08:03:52;;;;;;;14.48;6.45;;;;;;;17.43;40.32;95400.03;4993834;28;20185;-66
2023/12/29 08:06:17;;;;;;;4.13;3.83;;;;;;;18.22;38.58;95397.34;4993608;28;20208;-66
2023/12/29 08:08:43;;;;;;;15.13;4.50;;;;;;;18.37;37.29;95394.88;4993655;28;20612;-66
2023/12/29 08:11:16;;;;;;;8.40;5.03;;;;;;;18.40;38.53;95392.53;4993435;28;20252;-66
2023/12/29 08:13:43;;;;;;;15.05;7.88;;;;;;;18.15;39.55;95402.84;4993719;28;20191;-66
2023/12/29 08:16:08;;;;;;;10.20;8.93;;;;;;;17.56;39.90;95386.41;4993920;28;20251;-66
2023/12/29 08:18:34;;;;;;;3.47;3.17;;;;;;;17.60;39.13;95400.06;4993581;28;20188;-66
2023/12/29 08:20:59;;;;;;;1.20;1.20;;;;;;;17.28;39.72;95402.44;4993630;28;20177;-66
2023/12/29 08:23:26;;;;;;;4.95;4.55;;;;;;;16.89;39.45;95402.22;4993613;28;20668;-66
2023/12/29 08:25:52;;;;;;;7.40;6.90;;;;;;;16.48;40.26;95402.44;4993663;28;20684;-65
2023/12/29 08:28:17;;;;;;;8.23;7.72;;;;;;;15.83;41.01;95395.41;4993506;28;20177;-67
2023/12/29 08:30:45;;;;;;;3.10;2.97;;;;;;;16.28;41.27;95407.28;4993580;28;20595;-65
2023/12/29 08:33:12;;;;;;;21.88;9.00;;;;;;;15.63;41.41;95410.84;4993368;28;20551;-65
2023/12/29 08:35:40;;;;;;;8.57;4.47;;;;;;;15.52;42.23;95403.63;4993495;28;20179;-67
2023/12/29 08:38:06;;;;;;;0.67;0.67;;;;;;;15.15;42.61;95402.94;4993965;28;20239;-67
2023/12/29 08:40:33;;;;;;;4.03;3.57;;;;;;;14.79;44.88;95411.00;4999884;28;20568;-67
2023/12/29 08:42:58;;;;;;;1.70;1.63;;;;;;;14.42;45.14;95402.25;4976787;28;20195;-68
2023/12/29 08:45:24;;;;;;;3.77;3.53;;;;;;;14.19;45.96;95408.16;5005841;28;20267;-68
2023/12/29 08:47:49;;;;;;;2.57;2.47;;;;;;;13.84;46.98;95406.03;5008389;28;20556;-68
2023/12/29 08:50:15;;;;;;;61.20;5.87;;;;;;;14.27;46.14;95397.31;5012756;28;20699;-67
2023/12/29 08:52:41;;;;;;;2.87;1.87;;;;;;;14.27;46.16;95399.94;5006338;28;20263;-68
2023/12/29 08:55:07;;;;;;;0.70;0.70;;;;;;;14.22;46.88;95410.38;4994943;28;20196;-68
2023/12/29 08:57:34;;;;;;;5.10;2.20;;;;;;;14.06;47.12;95403.81;5002201;28;20532;-68
2023/12/29 08:59:59;;;;;;;0.80;0.80;;;;;;;13.70;48.18;95390.50;5012637;28;20176;-67
2023/12/29 09:02:25;;;;;;;0.90;0.90;;;;;;;13.70;48.34;95403.72;5011677;28;20184;-67
2023/12/29 09:04:50;;;;;;;5.73;5.40;;;;;;;13.55;48.29;95406.72;5008010;28;20204;-67
2023/12/29 09:07:16;;;;;;;2.60;2.50;;;;;;;13.62;47.98;95414.59;4993009;28;20215;-67
2023/12/29 09:09:41;;;;;;;3.00;2.80;;;;;;;13.34;49.56;95407.06;4992783;28;20320;-67
2023/12/29 09:12:06;;;;;;;2.10;2.00;;;;;;;13.68;48.95;95408.41;4992684;28;20196;-69
2023/12/29 09:14:34;;;;;;;2.07;1.83;;;;;;;13.23;49.02;95398.00;5002420;28;20181;-67
2023/12/29 09:17:00;;;;;;;2.77;2.57;;;;;;;13.10;50.19;95390.91;5012441;28;20255;-67
2023/12/29 09:19:25;;;;;;;2.20;2.00;;;;;;;13.38;50.84;95392.38;4992718;28;20272;-67
2023/12/29 09:21:51;;;;;;;1.33;1.23;;;;;;;13.05;50.30;95385.47;4999328;28;20637;-67
2023/12/29 09:24:16;;;;;;;9.73;8.20;;;;;;;12.31;52.38;95372.78;5008622;28;20215;-67
2023/12/29 09:26:42;;;;;;;8.00;6.43;;;;;;;11.94;53.89;95373.50;5011866;28;20713;-67
2023/12/29 09:29:07;;;;;;;6.90;6.23;;;;;;;11.79;54.98;95372.94;5012189;28;20238;-67
2023/12/29 09:31:33;;;;;;;9.70;5.50;;;;;;;11.37;56.78;95361.78;5011726;28;20172;-67
2023/12/29 09:33:58;;;;;;;3.27;2.07;;;;;;;11.49;57.02;95354.88;5012020;28;20191;-66
2023/12/29 09:36:24;;;;;;;2.13;2.03;;;;;;;11.75;56.54;95366.44;5012069;28;20176;-66
2023/12/29 09:38:49;;;;;;;2.27;2.17;;;;;;;12.06;56.17;95353.38;5011730;28;20572;-67
2023/12/29 09:41:16;;;;;;;2.07;1.67;;;;;;;12.19;55.80;95340.16;5011761;28;20824;-67
2023/12/29 09:43:42;;;;;;;1.33;1.33;;;;;;;12.42;55.35;95358.13;5011729;28;20176;-66
2023/12/29 09:46:09;;;;;;;4.70;4.40;;;;;;;12.47;54.67;95345.91;5011711;28;20200;-67
2023/12/29 09:48:37;;;;;;;0.83;0.83;;;;;;;12.41;54.88;95340.69;5011593;28;20267;-67
2023/12/29 09:51:05;;;;;;;1.07;1.07;;;;;;;12.63;54.20;95357.00;5011670;28;20180;-67
2023/12/29 09:53:31;;;;;;;1.97;1.93;;;;;;;12.36;54.62;95351.06;5011153;28;20192;-67
2023/12/29 09:55:59;;;;;;;15.93;6.53;;;;;;;12.35;54.98;95355.53;5009691;28;20181;-67
2023/12/29 09:58:26;;;;;;;4.30;4.10;;;;;;;12.38;54.58;95346.38;5011417;28;20339;-67
2023/12/29 10:01:02;;;;;;;4.37;2.97;;;;;;;12.22;54.80;95339.72;5011438;28;20656;-67
2023/12/29 10:03:27;;;;;;;4.13;3.83;;;;;;;12.35;55.34;95323.84;5011279;28;20176;-67
2023/12/29 10:05:59;;;;;;;1.17;1.17;;;;;;;12.54;55.20;95323.97;5011191;28;20211;-67
2023/12/29 10:08:28;;;;;;;0.57;0.57;;;;;;;12.59;54.92;95305.66;5006068;28;20180;-67
2023/12/29 10:10:57;;;;;;;0.97;0.80;;;;;;;12.70;55.08;95326.94;5011020;28;20217;-67
2023/12/29 10:13:24;;;;;;;1.60;0.90;;;;;;;12.70;54.76;95313.72;5010580;28;20544;-67
2023/12/29 10:15:57;;;;;;;3.80;2.43;;;;;;;12.76;53.81;95322.63;5011231;28;20169;-67
2023/12/29 10:18:32;;;;;;;2.07;1.97;;;;;;;12.74;55.30;95308.81;5010889;28;20188;-67
2023/12/29 10:21:21;;;;;;;3.77;3.57;;;;;;;12.41;53.74;95309.81;5010869;28;20566;-66
2023/12/29 10:23:54;;;;;;;1.07;1.07;;;;;;;12.29;54.47;95300.09;5010735;28;20578;-66
2023/12/29 10:26:21;;;;;;;4.17;3.87;;;;;;;12.12;54.20;95275.19;4993082;28;20581;-66
2023/12/29 10:28:50;;;;;;;0.50;0.50;;;;;;;11.99;54.47;95294.56;5010570;28;20173;-66
2023/12/29 10:31:18;;;;;;;22.23;10.10;;;;;;;11.99;54.74;95297.19;5008402;28;20195;-67
2023/12/29 10:33:44;;;;;;;8.03;7.40;;;;;;;11.53;55.71;95274.34;5010251;28;20183;-66
2023/12/29 10:36:10;;;;;;;7.07;6.33;;;;;;;11.63;56.83;95282.66;5011301;28;20169;-66
2023/12/29 10:38:41;;;;;;;1.03;1.03;;;;;;;11.85;58.26;95277.94;5009456;28;20183;-66
2023/12/29 10:41:14;;;;;;;0.87;0.87;;;;;;;11.94;57.41;95268.78;5010208;28;20172;-66
2023/12/29 10:43:47;;;;;;;1.03;1.03;;;;;;;11.90;57.94;95258.88;5009474;28;20583;-66
2023/12/29 10:46:13;;;;;;;1.53;1.30;;;;;;;11.79;58.67;95252.41;5009321;28;20203;-66
2023/12/29 10:48:39;;;;;;;1.17;1.17;;;;;;;11.56;57.45;95252.03;5009504;28;20172;-66
2023/12/29 10:51:05;;;;;;;0.60;0.60;;;;;;;11.53;58.20;95249.81;5009458;28;20650;-66
2023/12/29 10:53:34;;;;;;;5.37;4.17;;;;;;;11.15;59.17;95228.63;5009334;28;20617;-66
2023/12/29 10:56:00;;;;;;;2.97;2.77;;;;;;;11.29;58.42;95238.09;5008981;28;20259;-66
2023/12/29 10:58:30;;;;;;;4.30;3.83;;;;;;;11.34;59.00;95241.72;5009348;28;20268;-66
2023/12/29 11:00:56;;;;;;;8.50;6.17;;;;;;;11.28;58.56;95226.75;5009267;28;20247;-66
2023/12/29 11:03:22;;;;;;;0.50;0.50;;;;;;;11.33;59.66;95228.75;5009238;28;20168;-66
2023/12/29 11:05:48;;;;;;;0.40;0.40;;;;;;;11.41;59.56;95225.94;5008983;28;20200;-66
2023/12/29 11:08:20;;;;;;;0.50;0.50;;;;;;;11.49;59.59;95225.69;5005487;28;20227;-66
2023/12/29 11:10:49;;;;;;;0.50;0.50;;;;;;;11.45;59.18;95223.66;5008861;28;20224;-66
2023/12/29 11:13:14;;;;;;;3.83;3.40;;;;;;;11.52;58.49;95216.56;5009102;28;20254;-66
2023/12/29 11:15:43;;;;;;;0.70;0.70;;;;;;;11.46;59.01;95209.47;5009229;28;20180;-66
2023/12/29 11:18:16;;;;;;;0.50;0.50;;;;;;;11.29;59.58;95190.66;5009223;28;20508;-66
2023/12/29 11:20:45;;;;;;;1.23;1.23;;;;;;;11.43;60.33;95205.41;4997707;28;20686;-66
2023/12/29 11:23:14;;;;;;;1.70;1.70;;;;;;;11.41;59.52;95201.41;4989924;28;20192;-66
2023/12/29 11:25:40;;;;;;;0.53;0.53;;;;;;;11.32;59.67;95203.44;4990103;28;20191;-66
2023/12/29 11:28:09;;;;;;;2.50;2.30;;;;;;;11.20;60.01;95184.00;4972797;28;20606;-66
2023/12/29 11:30:35;;;;;;;0.50;0.50;;;;;;;11.29;59.96;95201.22;4989962;28;20588;-66
2023/12/29 11:33:25;;;;;;;2.10;1.77;;;;;;;11.22;60.95;95177.50;4989829;28;20185;-66